Etusivu
METAR-TAF:

METAR-TAF

Lentoasemat :

Port Angeles, Washington, Yhdysvallat

Leveyspiiri: 48-08-27N, Pituuspiiri: 123-24-39W, korkeus merenpinnasta: 4 m

Tämänhetkinen sää

Tämä raportti tehtiin 26 minuuttia sitten, kello 16.50 UTC
Tuuli 5 kn lännestä/luoteesta
Lämpötila 12°C
Kosteus 82%
Ilmanpaine 1007 hPa
Näkyvyys: 16.1 km
Pilvistä 10000 ft:n korkeudessa

METAR: KNOW 191650Z AUTO 29005KT 10SM OVC100 12/09 A2975 RMK AO2 T01200088

Aika: 10:16 (17:16 UTC)


TAF: puuttuu

Säähavainnot ja -ennusteet yli 4000 lentoasemalta (METAR- ja TAF-raportit).

Käytössä olevat sääasemat on merkitty karttaan keltaisilla ja punaisilla pisteillä.

Aseta hiiri pisteen päälle nähdäksesi sääaseman nimen.

Klikkaa sitten nähdäksesi säähavainnot ja -ennusteet.

Kartan vaihtaminen: klikkaa mustalla rastilla varustettuja vihreitä pisteitä, niin voit zoomata sisään; viivalla varustettua vihreää pistettä, niin voit zoomata ulos tai vihreitä nuolia, niin pääset viereisille kartoille.


METAR-TAF: